Página principal
METAR-TAF:

METAR-TAF

Aeroportos :

Tel Aviv / Ben Gurion, Israel

Aeroporto Internacional Ben Gurion

latitude: 32-00N, longitude: 034-54E, altura: 40 m

Observação actual do tempo

O boletim foi feito há 56 minutos, às 22:50 UTC
Vento 3 kt com direcção variável
Temperatura 26°C
Humidade 70%
Pressão 1010 hPa
Visibilidade 10 km ou mais
sem nuvens abaixo de 1500 metros e sem cumulonimbus

METAR: LLBG 182250Z VRB03KT CAVOK 26/20 Q1010 NOSIG

Hora: 02:46 (23:46 UTC)

Previsão

O boletim foi feito há 29 minutos, às 23:17 UTC
Previsão válida de 19 às 00 UTC a 19 às 24 UTC
Vento 3 kt com direcção variável
Visibilidade 10 km ou mais
sem nuvens abaixo de 1500 metros e sem cumulonimbus
Tornando-se
de 19 às 07 UTC a 19 às 09 UTC
Vento 10 kt de oes-noroeste
Tornando-se
de 19 às 17 UTC a 19 às 19 UTC
Vento 4 kt de nor-nordeste

TAF: LLBG 182317Z 1900/1924 VRB03KT CAVOK BECMG 1907/1909 30010KT BECMG 1917/1919 03004KT TX34/1910Z TN24/1903Z

Observações e previsões do tempo de mais de 4000 aeroportos (mensagens METAR e TAF).

As estações disponíveis são os pontos amarelos e vermelhos sobre o mapa.

Mova o rato sobre o mapa para ver o nome da estação.

Depois clique no ponto para visualizar as observações e previsões meteorológicas.

Para alterar o mapa : clique nos botões verdes com uma cruz preta para aumentar o zoom; no botão verde com uma pitada de zoom; ou nas setas verdes para mapas adjacentes.


METAR-TAF: